sensor_id;sensor_type;location;lat;lon;timestamp;pressure;altitude;pressure_sealevel;temperature;humidity
35551;BME280;21655;46.056;13.616;2023-04-30T00:01:46;100371.03;;;12.16;100.00
35551;BME280;21655;46.056;13.616;2023-04-30T00:04:12;100368.25;;;12.16;100.00
35551;BME280;21655;46.056;13.616;2023-04-30T00:06:37;100369.84;;;12.11;100.00
35551;BME280;21655;46.056;13.616;2023-04-30T00:09:02;100370.81;;;12.18;100.00
35551;BME280;21655;46.056;13.616;2023-04-30T00:11:28;100373.59;;;12.18;100.00
35551;BME280;21655;46.056;13.616;2023-04-30T00:13:53;100377.56;;;12.38;100.00
35551;BME280;21655;46.056;13.616;2023-04-30T00:16:21;100374.28;;;12.49;100.00
35551;BME280;21655;46.056;13.616;2023-04-30T00:18:46;100373.78;;;12.31;100.00
35551;BME280;21655;46.056;13.616;2023-04-30T00:21:12;100377.91;;;12.20;100.00
35551;BME280;21655;46.056;13.616;2023-04-30T00:23:37;100376.97;;;12.28;100.00
35551;BME280;21655;46.056;13.616;2023-04-30T00:26:03;100375.53;;;12.32;100.00
35551;BME280;21655;46.056;13.616;2023-04-30T00:28:28;100369.88;;;12.40;100.00
35551;BME280;21655;46.056;13.616;2023-04-30T00:30:54;100381.28;;;12.45;100.00
35551;BME280;21655;46.056;13.616;2023-04-30T00:33:19;100371.41;;;12.42;100.00
35551;BME280;21655;46.056;13.616;2023-04-30T00:35:45;100383.00;;;12.46;100.00
35551;BME280;21655;46.056;13.616;2023-04-30T00:38:11;100385.03;;;12.37;100.00
35551;BME280;21655;46.056;13.616;2023-04-30T00:40:37;100374.28;;;12.34;100.00
35551;BME280;21655;46.056;13.616;2023-04-30T00:43:02;100371.59;;;12.41;100.00
35551;BME280;21655;46.056;13.616;2023-04-30T00:45:28;100370.75;;;12.26;100.00
35551;BME280;21655;46.056;13.616;2023-04-30T00:47:53;100379.56;;;12.29;100.00
35551;BME280;21655;46.056;13.616;2023-04-30T00:50:20;100376.97;;;12.42;100.00
35551;BME280;21655;46.056;13.616;2023-04-30T00:52:46;100382.72;;;12.41;100.00
35551;BME280;21655;46.056;13.616;2023-04-30T00:55:12;100369.00;;;12.39;100.00
35551;BME280;21655;46.056;13.616;2023-04-30T00:57:38;100367.28;;;12.24;100.00
35551;BME280;21655;46.056;13.616;2023-04-30T01:00:05;100369.56;;;12.20;100.00
35551;BME280;21655;46.056;13.616;2023-04-30T01:02:34;100369.41;;;12.22;100.00
35551;BME280;21655;46.056;13.616;2023-04-30T01:05:01;100369.84;;;12.25;100.00
35551;BME280;21655;46.056;13.616;2023-04-30T01:07:27;100369.78;;;12.33;100.00
35551;BME280;21655;46.056;13.616;2023-04-30T01:09:53;100366.53;;;12.44;100.00
35551;BME280;21655;46.056;13.616;2023-04-30T01:14:52;100369.78;;;12.48;100.00
35551;BME280;21655;46.056;13.616;2023-04-30T01:17:27;100369.19;;;12.52;100.00
35551;BME280;21655;46.056;13.616;2023-04-30T01:19:56;100363.25;;;12.41;100.00
35551;BME280;21655;46.056;13.616;2023-04-30T01:22:34;100370.44;;;12.35;100.00
35551;BME280;21655;46.056;13.616;2023-04-30T01:25:28;100368.91;;;12.47;100.00
35551;BME280;21655;46.056;13.616;2023-04-30T01:30:25;100370.91;;;12.53;100.00
35551;BME280;21655;46.056;13.616;2023-04-30T01:32:51;100374.19;;;12.57;100.00
35551;BME280;21655;46.056;13.616;2023-04-30T01:35:16;100370.09;;;12.53;100.00
35551;BME280;21655;46.056;13.616;2023-04-30T01:37:58;100376.47;;;12.53;100.00
35551;BME280;21655;46.056;13.616;2023-04-30T01:40:57;100368.25;;;12.60;100.00
35551;BME280;21655;46.056;13.616;2023-04-30T01:43:37;100371.13;;;12.66;100.00
35551;BME280;21655;46.056;13.616;2023-04-30T01:46:33;100377.81;;;12.72;100.00
35551;BME280;21655;46.056;13.616;2023-04-30T01:49:18;100374.28;;;12.63;100.00
35551;BME280;21655;46.056;13.616;2023-04-30T01:51:51;100364.31;;;12.54;100.00
35551;BME280;21655;46.056;13.616;2023-04-30T01:54:59;100365.75;;;12.50;100.00
35551;BME280;21655;46.056;13.616;2023-04-30T01:57:20;100372.34;;;12.64;100.00
35551;BME280;21655;46.056;13.616;2023-04-30T01:59:48;100375.44;;;12.69;100.00
35551;BME280;21655;46.056;13.616;2023-04-30T02:02:14;100373.00;;;12.66;100.00
35551;BME280;21655;46.056;13.616;2023-04-30T02:04:39;100367.28;;;12.67;100.00
35551;BME280;21655;46.056;13.616;2023-04-30T02:07:05;100366.47;;;12.73;100.00
35551;BME280;21655;46.056;13.616;2023-04-30T02:09:30;100363.31;;;12.76;100.00
35551;BME280;21655;46.056;13.616;2023-04-30T02:11:56;100354.38;;;12.81;100.00
35551;BME280;21655;46.056;13.616;2023-04-30T02:14:22;100350.59;;;12.67;100.00
35551;BME280;21655;46.056;13.616;2023-04-30T02:16:47;100345.50;;;12.71;100.00
35551;BME280;21655;46.056;13.616;2023-04-30T02:19:12;100356.91;;;12.76;100.00
35551;BME280;21655;46.056;13.616;2023-04-30T02:21:38;100350.28;;;12.77;100.00
35551;BME280;21655;46.056;13.616;2023-04-30T02:24:03;100350.84;;;12.72;100.00
35551;BME280;21655;46.056;13.616;2023-04-30T02:26:29;100354.50;;;12.73;100.00
35551;BME280;21655;46.056;13.616;2023-04-30T02:28:54;100351.81;;;12.65;100.00
35551;BME280;21655;46.056;13.616;2023-04-30T02:31:20;100358.34;;;12.72;100.00
35551;BME280;21655;46.056;13.616;2023-04-30T02:33:46;100347.63;;;12.69;100.00
35551;BME280;21655;46.056;13.616;2023-04-30T02:36:11;100350.75;;;12.66;100.00
35551;BME280;21655;46.056;13.616;2023-04-30T02:38:36;100351.06;;;12.56;100.00
35551;BME280;21655;46.056;13.616;2023-04-30T02:41:02;100351.63;;;12.66;100.00
35551;BME280;21655;46.056;13.616;2023-04-30T02:43:28;100343.47;;;12.65;100.00
35551;BME280;21655;46.056;13.616;2023-04-30T02:45:53;100339.94;;;12.71;100.00
35551;BME280;21655;46.056;13.616;2023-04-30T02:48:18;100338.13;;;12.63;100.00
35551;BME280;21655;46.056;13.616;2023-04-30T02:50:44;100342.25;;;12.53;100.00
35551;BME280;21655;46.056;13.616;2023-04-30T02:53:09;100336.09;;;12.57;100.00
35551;BME280;21655;46.056;13.616;2023-04-30T02:55:35;100334.75;;;12.53;100.00
35551;BME280;21655;46.056;13.616;2023-04-30T02:58:00;100338.81;;;12.36;100.00
35551;BME280;21655;46.056;13.616;2023-04-30T03:00:26;100346.31;;;12.36;100.00
35551;BME280;21655;46.056;13.616;2023-04-30T03:02:51;100351.09;;;12.27;100.00
35551;BME280;21655;46.056;13.616;2023-04-30T03:05:17;100357.22;;;12.23;100.00
35551;BME280;21655;46.056;13.616;2023-04-30T03:07:42;100353.94;;;12.19;100.00
35551;BME280;21655;46.056;13.616;2023-04-30T03:10:08;100357.97;;;12.17;100.00
35551;BME280;21655;46.056;13.616;2023-04-30T03:12:34;100354.72;;;12.13;100.00
35551;BME280;21655;46.056;13.616;2023-04-30T03:14:59;100357.28;;;12.15;100.00
35551;BME280;21655;46.056;13.616;2023-04-30T03:17:25;100363.72;;;12.15;100.00
35551;BME280;21655;46.056;13.616;2023-04-30T03:19:50;100357.97;;;12.02;100.00
35551;BME280;21655;46.056;13.616;2023-04-30T03:22:15;100360.13;;;11.92;100.00
35551;BME280;21655;46.056;13.616;2023-04-30T03:24:44;100361.41;;;11.90;100.00
35551;BME280;21655;46.056;13.616;2023-04-30T03:27:09;100355.63;;;11.91;100.00
35551;BME280;21655;46.056;13.616;2023-04-30T03:29:34;100366.47;;;11.86;100.00
35551;BME280;21655;46.056;13.616;2023-04-30T03:32:00;100356.69;;;11.90;100.00
35551;BME280;21655;46.056;13.616;2023-04-30T03:34:25;100352.47;;;11.80;100.00
35551;BME280;21655;46.056;13.616;2023-04-30T03:36:51;100351.38;;;11.66;100.00
35551;BME280;21655;46.056;13.616;2023-04-30T03:39:16;100353.59;;;11.71;100.00
35551;BME280;21655;46.056;13.616;2023-04-30T03:41:41;100358.09;;;11.72;100.00
35551;BME280;21655;46.056;13.616;2023-04-30T03:44:07;100353.09;;;11.67;100.00
35551;BME280;21655;46.056;13.616;2023-04-30T03:46:39;100351.09;;;11.61;100.00
35551;BME280;21655;46.056;13.616;2023-04-30T03:49:04;100355.78;;;11.61;100.00
35551;BME280;21655;46.056;13.616;2023-04-30T03:51:30;100355.28;;;11.57;100.00
35551;BME280;21655;46.056;13.616;2023-04-30T03:53:55;100359.88;;;11.65;100.00
35551;BME280;21655;46.056;13.616;2023-04-30T03:56:21;100361.81;;;11.64;100.00
35551;BME280;21655;46.056;13.616;2023-04-30T03:58:46;100363.16;;;11.68;100.00
35551;BME280;21655;46.056;13.616;2023-04-30T04:01:11;100368.34;;;11.71;100.00
35551;BME280;21655;46.056;13.616;2023-04-30T04:03:37;100367.78;;;11.76;100.00
35551;BME280;21655;46.056;13.616;2023-04-30T04:06:02;100373.06;;;11.71;100.00
35551;BME280;21655;46.056;13.616;2023-04-30T04:08:29;100372.25;;;11.62;100.00
35551;BME280;21655;46.056;13.616;2023-04-30T04:10:54;100369.47;;;11.62;100.00
35551;BME280;21655;46.056;13.616;2023-04-30T04:13:20;100367.84;;;11.68;100.00
35551;BME280;21655;46.056;13.616;2023-04-30T04:15:45;100365.38;;;11.73;100.00
35551;BME280;21655;46.056;13.616;2023-04-30T04:18:11;100370.34;;;11.77;100.00
35551;BME280;21655;46.056;13.616;2023-04-30T04:20:36;100372.03;;;11.86;100.00
35551;BME280;21655;46.056;13.616;2023-04-30T04:23:01;100369.06;;;11.88;100.00
35551;BME280;21655;46.056;13.616;2023-04-30T04:25:27;100370.44;;;11.69;100.00
35551;BME280;21655;46.056;13.616;2023-04-30T04:27:53;100378.69;;;11.77;100.00
35551;BME280;21655;46.056;13.616;2023-04-30T04:30:18;100377.47;;;11.80;100.00
35551;BME280;21655;46.056;13.616;2023-04-30T04:32:44;100390.78;;;11.84;100.00
35551;BME280;21655;46.056;13.616;2023-04-30T04:35:15;100377.41;;;11.88;100.00
35551;BME280;21655;46.056;13.616;2023-04-30T04:37:41;100389.66;;;11.93;100.00
35551;BME280;21655;46.056;13.616;2023-04-30T04:40:07;100387.88;;;12.00;100.00
35551;BME280;21655;46.056;13.616;2023-04-30T04:42:33;100394.47;;;11.99;100.00
35551;BME280;21655;46.056;13.616;2023-04-30T04:44:58;100394.59;;;12.06;100.00
35551;BME280;21655;46.056;13.616;2023-04-30T04:47:24;100394.38;;;12.07;100.00
35551;BME280;21655;46.056;13.616;2023-04-30T04:49:49;100400.09;;;12.28;100.00
35551;BME280;21655;46.056;13.616;2023-04-30T04:52:15;100397.31;;;12.43;100.00
35551;BME280;21655;46.056;13.616;2023-04-30T04:54:40;100388.28;;;12.55;100.00
35551;BME280;21655;46.056;13.616;2023-04-30T04:57:06;100394.59;;;12.64;100.00
35551;BME280;21655;46.056;13.616;2023-04-30T04:59:31;100395.47;;;12.79;100.00
35551;BME280;21655;46.056;13.616;2023-04-30T05:01:57;100399.66;;;12.89;100.00
35551;BME280;21655;46.056;13.616;2023-04-30T05:04:22;100398.41;;;12.92;100.00
35551;BME280;21655;46.056;13.616;2023-04-30T05:06:48;100396.03;;;13.03;100.00
35551;BME280;21655;46.056;13.616;2023-04-30T05:09:13;100399.06;;;13.08;100.00
35551;BME280;21655;46.056;13.616;2023-04-30T05:11:38;100397.19;;;13.29;100.00
35551;BME280;21655;46.056;13.616;2023-04-30T05:14:05;100392.06;;;13.68;100.00
35551;BME280;21655;46.056;13.616;2023-04-30T05:16:31;100398.78;;;14.22;100.00
35551;BME280;21655;46.056;13.616;2023-04-30T05:18:56;100401.44;;;14.64;100.00
35551;BME280;21655;46.056;13.616;2023-04-30T05:21:22;100391.31;;;14.97;100.00
35551;BME280;21655;46.056;13.616;2023-04-30T05:23:47;100384.13;;;15.22;100.00
35551;BME280;21655;46.056;13.616;2023-04-30T05:26:12;100395.38;;;15.48;100.00
35551;BME280;21655;46.056;13.616;2023-04-30T05:28:38;100394.56;;;15.54;100.00
35551;BME280;21655;46.056;13.616;2023-04-30T05:31:03;100381.66;;;15.46;100.00
35551;BME280;21655;46.056;13.616;2023-04-30T05:33:29;100388.94;;;15.41;100.00
35551;BME280;21655;46.056;13.616;2023-04-30T05:35:54;100387.94;;;15.94;100.00
35551;BME280;21655;46.056;13.616;2023-04-30T05:38:20;100394.25;;;16.35;100.00
35551;BME280;21655;46.056;13.616;2023-04-30T05:40:45;100396.50;;;16.83;100.00
35551;BME280;21655;46.056;13.616;2023-04-30T05:43:10;100388.34;;;17.38;100.00
35551;BME280;21655;46.056;13.616;2023-04-30T05:45:36;100398.66;;;17.82;100.00
35551;BME280;21655;46.056;13.616;2023-04-30T05:48:01;100394.03;;;17.94;100.00
35551;BME280;21655;46.056;13.616;2023-04-30T05:50:27;100394.38;;;18.35;100.00
35551;BME280;21655;46.056;13.616;2023-04-30T05:52:52;100389.06;;;18.69;100.00
35551;BME280;21655;46.056;13.616;2023-04-30T05:55:17;100389.44;;;19.33;100.00
35551;BME280;21655;46.056;13.616;2023-04-30T05:57:43;100387.47;;;19.33;100.00
35551;BME280;21655;46.056;13.616;2023-04-30T06:00:08;100389.59;;;19.97;100.00
35551;BME280;21655;46.056;13.616;2023-04-30T06:02:34;100389.19;;;20.34;100.00
35551;BME280;21655;46.056;13.616;2023-04-30T06:05:00;100393.09;;;21.36;100.00
35551;BME280;21655;46.056;13.616;2023-04-30T06:07:27;100379.16;;;21.69;100.00
35551;BME280;21655;46.056;13.616;2023-04-30T06:09:52;100390.94;;;21.27;100.00
35551;BME280;21655;46.056;13.616;2023-04-30T06:12:18;100368.44;;;21.43;100.00
35551;BME280;21655;46.056;13.616;2023-04-30T06:14:43;100377.34;;;21.63;100.00
35551;BME280;21655;46.056;13.616;2023-04-30T06:17:11;100367.91;;;22.47;100.00
35551;BME280;21655;46.056;13.616;2023-04-30T06:19:36;100371.19;;;22.55;100.00
35551;BME280;21655;46.056;13.616;2023-04-30T06:22:03;100375.13;;;21.93;100.00
35551;BME280;21655;46.056;13.616;2023-04-30T06:24:28;100374.91;;;20.82;100.00
35551;BME280;21655;46.056;13.616;2023-04-30T06:26:55;100378.06;;;19.98;100.00
35551;BME280;21655;46.056;13.616;2023-04-30T06:29:20;100378.53;;;19.84;100.00
35551;BME280;21655;46.056;13.616;2023-04-30T06:31:48;100373.56;;;19.38;100.00
35551;BME280;21655;46.056;13.616;2023-04-30T06:34:15;100373.41;;;19.92;100.00
35551;BME280;21655;46.056;13.616;2023-04-30T06:36:40;100375.41;;;21.02;100.00
35551;BME280;21655;46.056;13.616;2023-04-30T06:39:05;100373.13;;;21.77;100.00
35551;BME280;21655;46.056;13.616;2023-04-30T06:41:31;100369.84;;;22.41;100.00
35551;BME280;21655;46.056;13.616;2023-04-30T06:43:56;100372.31;;;21.93;100.00
35551;BME280;21655;46.056;13.616;2023-04-30T06:46:22;100375.28;;;21.47;100.00
35551;BME280;21655;46.056;13.616;2023-04-30T06:48:47;100370.09;;;20.82;100.00
35551;BME280;21655;46.056;13.616;2023-04-30T06:51:13;100375.16;;;20.46;100.00
35551;BME280;21655;46.056;13.616;2023-04-30T06:53:38;100367.81;;;20.91;100.00
35551;BME280;21655;46.056;13.616;2023-04-30T06:56:04;100381.00;;;21.75;100.00
35551;BME280;21655;46.056;13.616;2023-04-30T06:58:29;100369.16;;;22.51;100.00
35551;BME280;21655;46.056;13.616;2023-04-30T07:00:55;100365.69;;;22.16;100.00
35551;BME280;21655;46.056;13.616;2023-04-30T07:03:20;100364.84;;;21.87;100.00
35551;BME280;21655;46.056;13.616;2023-04-30T07:05:45;100368.97;;;22.41;100.00
35551;BME280;21655;46.056;13.616;2023-04-30T07:08:11;100363.41;;;23.16;100.00
35551;BME280;21655;46.056;13.616;2023-04-30T07:10:37;100368.00;;;23.87;100.00
35551;BME280;21655;46.056;13.616;2023-04-30T07:13:02;100375.13;;;24.74;100.00
35551;BME280;21655;46.056;13.616;2023-04-30T07:15:28;100373.91;;;25.01;100.00
35551;BME280;21655;46.056;13.616;2023-04-30T07:17:53;100370.47;;;26.12;84.86
35551;BME280;21655;46.056;13.616;2023-04-30T07:20:19;100377.38;;;25.59;88.91
35551;BME280;21655;46.056;13.616;2023-04-30T07:22:45;100365.38;;;25.47;82.98
35551;BME280;21655;46.056;13.616;2023-04-30T07:25:14;100359.69;;;25.42;81.24
35551;BME280;21655;46.056;13.616;2023-04-30T07:27:39;100363.84;;;25.25;91.07
35551;BME280;21655;46.056;13.616;2023-04-30T07:30:06;100359.44;;;25.54;93.70
35551;BME280;21655;46.056;13.616;2023-04-30T07:32:33;100368.09;;;25.84;79.92
35551;BME280;21655;46.056;13.616;2023-04-30T07:34:59;100380.41;;;26.09;81.82
35551;BME280;21655;46.056;13.616;2023-04-30T07:37:25;100381.66;;;26.53;75.66
35551;BME280;21655;46.056;13.616;2023-04-30T07:39:51;100377.66;;;26.74;66.53
35551;BME280;21655;46.056;13.616;2023-04-30T07:42:16;100387.28;;;26.43;66.71
35551;BME280;21655;46.056;13.616;2023-04-30T07:44:41;100396.97;;;26.42;67.99
35551;BME280;21655;46.056;13.616;2023-04-30T07:47:07;100402.13;;;26.90;63.06
35551;BME280;21655;46.056;13.616;2023-04-30T07:49:32;100403.25;;;26.64;63.56
35551;BME280;21655;46.056;13.616;2023-04-30T07:51:58;100412.28;;;26.31;64.30
35551;BME280;21655;46.056;13.616;2023-04-30T07:54:25;100406.66;;;25.70;67.19
35551;BME280;21655;46.056;13.616;2023-04-30T07:56:50;100412.81;;;26.08;63.12
35551;BME280;21655;46.056;13.616;2023-04-30T07:59:16;100418.13;;;25.85;65.37
35551;BME280;21655;46.056;13.616;2023-04-30T08:01:41;100417.22;;;25.23;64.03
35551;BME280;21655;46.056;13.616;2023-04-30T08:04:07;100423.03;;;25.07;68.69
35551;BME280;21655;46.056;13.616;2023-04-30T08:06:33;100428.50;;;25.59;67.17
35551;BME280;21655;46.056;13.616;2023-04-30T08:08:58;100429.16;;;25.81;72.74
35551;BME280;21655;46.056;13.616;2023-04-30T08:11:25;100429.34;;;26.21;60.91
35551;BME280;21655;46.056;13.616;2023-04-30T08:13:51;100427.03;;;25.52;63.17
35551;BME280;21655;46.056;13.616;2023-04-30T08:16:16;100423.28;;;25.00;69.80
35551;BME280;21655;46.056;13.616;2023-04-30T08:18:41;100421.34;;;24.74;72.04
35551;BME280;21655;46.056;13.616;2023-04-30T08:21:10;100422.38;;;24.37;74.10
35551;BME280;21655;46.056;13.616;2023-04-30T08:23:35;100428.09;;;23.67;81.25
35551;BME280;21655;46.056;13.616;2023-04-30T08:26:01;100431.63;;;23.36;86.44
35551;BME280;21655;46.056;13.616;2023-04-30T08:28:26;100428.72;;;23.74;86.78
35551;BME280;21655;46.056;13.616;2023-04-30T08:30:52;100437.41;;;24.11;85.15
35551;BME280;21655;46.056;13.616;2023-04-30T08:33:17;100440.53;;;24.94;73.43
35551;BME280;21655;46.056;13.616;2023-04-30T08:35:43;100437.72;;;25.86;63.14
35551;BME280;21655;46.056;13.616;2023-04-30T08:38:08;100439.56;;;25.56;63.76
35551;BME280;21655;46.056;13.616;2023-04-30T08:40:35;100455.97;;;24.50;69.79
35551;BME280;21655;46.056;13.616;2023-04-30T08:43:06;100454.47;;;23.51;76.17
35551;BME280;21655;46.056;13.616;2023-04-30T08:45:33;100450.13;;;23.44;84.07
35551;BME280;21655;46.056;13.616;2023-04-30T08:48:00;100436.50;;;23.41;87.47
35551;BME280;21655;46.056;13.616;2023-04-30T08:50:26;100447.56;;;23.64;88.14
35551;BME280;21655;46.056;13.616;2023-04-30T08:52:52;100444.97;;;24.00;85.91
35551;BME280;21655;46.056;13.616;2023-04-30T08:55:18;100448.41;;;25.64;65.39
35551;BME280;21655;46.056;13.616;2023-04-30T08:57:43;100433.41;;;26.50;59.02
35551;BME280;21655;46.056;13.616;2023-04-30T09:00:09;100441.66;;;25.80;63.52
35551;BME280;21655;46.056;13.616;2023-04-30T09:02:38;100438.03;;;24.44;72.21
35551;BME280;21655;46.056;13.616;2023-04-30T09:05:10;100451.28;;;23.64;76.83
35551;BME280;21655;46.056;13.616;2023-04-30T09:07:38;100452.09;;;23.43;78.79
35551;BME280;21655;46.056;13.616;2023-04-30T09:10:13;100445.63;;;23.10;89.02
35551;BME280;21655;46.056;13.616;2023-04-30T09:12:40;100451.19;;;23.21;89.15
35551;BME280;21655;46.056;13.616;2023-04-30T09:15:07;100446.50;;;22.94;89.65
35551;BME280;21655;46.056;13.616;2023-04-30T09:17:34;100442.69;;;23.05;92.42
35551;BME280;21655;46.056;13.616;2023-04-30T09:20:17;100455.88;;;22.34;98.18
35551;BME280;21655;46.056;13.616;2023-04-30T09:22:43;100466.91;;;22.07;100.00
35551;BME280;21655;46.056;13.616;2023-04-30T09:25:09;100461.91;;;21.47;100.00
35551;BME280;21655;46.056;13.616;2023-04-30T09:27:35;100455.38;;;21.69;99.96
35551;BME280;21655;46.056;13.616;2023-04-30T09:30:01;100450.16;;;21.38;100.00
35551;BME280;21655;46.056;13.616;2023-04-30T09:32:27;100433.19;;;21.61;100.00
35551;BME280;21655;46.056;13.616;2023-04-30T09:34:52;100451.91;;;21.79;100.00
35551;BME280;21655;46.056;13.616;2023-04-30T09:37:17;100445.53;;;21.83;100.00
35551;BME280;21655;46.056;13.616;2023-04-30T09:39:53;100443.59;;;22.00;100.00
35551;BME280;21655;46.056;13.616;2023-04-30T09:42:19;100439.56;;;22.24;100.00
35551;BME280;21655;46.056;13.616;2023-04-30T09:44:45;100428.66;;;22.00;100.00
35551;BME280;21655;46.056;13.616;2023-04-30T09:47:15;100426.66;;;22.00;100.00
35551;BME280;21655;46.056;13.616;2023-04-30T09:49:42;100433.56;;;21.93;100.00
35551;BME280;21655;46.056;13.616;2023-04-30T09:52:09;100420.31;;;22.38;99.52
35551;BME280;21655;46.056;13.616;2023-04-30T09:54:35;100422.06;;;22.55;99.10
35551;BME280;21655;46.056;13.616;2023-04-30T09:57:01;100424.38;;;22.75;97.65
35551;BME280;21655;46.056;13.616;2023-04-30T09:59:31;100425.44;;;23.39;89.65
35551;BME280;21655;46.056;13.616;2023-04-30T10:02:01;100417.47;;;23.36;84.01
35551;BME280;21655;46.056;13.616;2023-04-30T10:04:32;100416.03;;;23.55;87.36
35551;BME280;21655;46.056;13.616;2023-04-30T10:07:00;100426.28;;;23.40;81.78
35551;BME280;21655;46.056;13.616;2023-04-30T10:09:29;100415.47;;;23.15;80.01
35551;BME280;21655;46.056;13.616;2023-04-30T10:11:57;100419.75;;;23.02;87.66
35551;BME280;21655;46.056;13.616;2023-04-30T10:14:24;100423.16;;;22.87;88.79
35551;BME280;21655;46.056;13.616;2023-04-30T10:17:00;100418.72;;;22.91;89.06
35551;BME280;21655;46.056;13.616;2023-04-30T10:19:33;100403.22;;;23.53;79.44
35551;BME280;21655;46.056;13.616;2023-04-30T10:21:59;100397.53;;;24.17;75.78
35551;BME280;21655;46.056;13.616;2023-04-30T10:24:26;100389.00;;;27.14;59.16
35551;BME280;21655;46.056;13.616;2023-04-30T10:26:51;100379.59;;;27.33;52.01
35551;BME280;21655;46.056;13.616;2023-04-30T10:29:17;100381.06;;;26.51;54.44
35551;BME280;21655;46.056;13.616;2023-04-30T10:31:48;100382.97;;;25.39;57.32
35551;BME280;21655;46.056;13.616;2023-04-30T10:36:58;100366.94;;;24.51;60.45
35551;BME280;21655;46.056;13.616;2023-04-30T10:39:25;100370.25;;;25.10;59.34
35551;BME280;21655;46.056;13.616;2023-04-30T10:42:04;100370.13;;;24.28;63.08
35551;BME280;21655;46.056;13.616;2023-04-30T10:44:35;100365.94;;;24.30;64.29
35551;BME280;21655;46.056;13.616;2023-04-30T10:47:02;100352.66;;;24.09;59.66
35551;BME280;21655;46.056;13.616;2023-04-30T10:49:28;100355.63;;;23.71;66.20
35551;BME280;21655;46.056;13.616;2023-04-30T10:51:54;100352.50;;;23.94;65.22
35551;BME280;21655;46.056;13.616;2023-04-30T10:54:25;100359.03;;;23.73;65.54
35551;BME280;21655;46.056;13.616;2023-04-30T10:56:52;100346.31;;;23.49;70.21
35551;BME280;21655;46.056;13.616;2023-04-30T10:59:20;100346.72;;;22.99;73.42
35551;BME280;21655;46.056;13.616;2023-04-30T11:02:00;100352.41;;;23.20;68.26
35551;BME280;21655;46.056;13.616;2023-04-30T11:04:26;100357.16;;;23.36;68.02
35551;BME280;21655;46.056;13.616;2023-04-30T11:09:40;100346.88;;;23.51;67.37
35551;BME280;21655;46.056;13.616;2023-04-30T11:12:19;100355.13;;;24.01;64.33
35551;BME280;21655;46.056;13.616;2023-04-30T11:14:59;100357.59;;;24.50;58.92
35551;BME280;21655;46.056;13.616;2023-04-30T11:17:26;100353.34;;;24.84;58.75
35551;BME280;21655;46.056;13.616;2023-04-30T11:19:53;100354.50;;;24.52;53.93
35551;BME280;21655;46.056;13.616;2023-04-30T11:22:21;100350.53;;;24.53;55.17
35551;BME280;21655;46.056;13.616;2023-04-30T11:24:59;100334.31;;;24.48;53.04
35551;BME280;21655;46.056;13.616;2023-04-30T11:27:31;100346.63;;;24.01;55.89
35551;BME280;21655;46.056;13.616;2023-04-30T11:29:57;100343.53;;;24.02;53.97
35551;BME280;21655;46.056;13.616;2023-04-30T11:32:33;100342.81;;;23.90;55.56
35551;BME280;21655;46.056;13.616;2023-04-30T11:35:03;100334.91;;;23.92;57.63
35551;BME280;21655;46.056;13.616;2023-04-30T11:37:35;100344.06;;;23.51;56.96
35551;BME280;21655;46.056;13.616;2023-04-30T11:40:04;100331.56;;;23.26;57.90
35551;BME280;21655;46.056;13.616;2023-04-30T11:42:30;100335.38;;;23.15;60.57
35551;BME280;21655;46.056;13.616;2023-04-30T11:45:05;100327.53;;;23.22;58.77
35551;BME280;21655;46.056;13.616;2023-04-30T11:47:41;100325.50;;;23.17;61.32
35551;BME280;21655;46.056;13.616;2023-04-30T11:50:08;100336.06;;;23.05;60.11
35551;BME280;21655;46.056;13.616;2023-04-30T11:52:34;100331.69;;;22.98;62.13
35551;BME280;21655;46.056;13.616;2023-04-30T11:55:04;100326.28;;;22.97;60.32
35551;BME280;21655;46.056;13.616;2023-04-30T11:57:34;100329.19;;;22.80;61.39
35551;BME280;21655;46.056;13.616;2023-04-30T12:00:10;100319.59;;;22.65;64.50
35551;BME280;21655;46.056;13.616;2023-04-30T12:02:36;100318.81;;;22.69;63.33
35551;BME280;21655;46.056;13.616;2023-04-30T12:05:01;100316.16;;;22.79;63.84
35551;BME280;21655;46.056;13.616;2023-04-30T12:07:28;100314.44;;;22.78;61.28
35551;BME280;21655;46.056;13.616;2023-04-30T12:09:54;100303.00;;;22.90;64.62
35551;BME280;21655;46.056;13.616;2023-04-30T12:12:29;100297.22;;;23.17;60.81
35551;BME280;21655;46.056;13.616;2023-04-30T12:14:55;100299.59;;;23.09;63.78
35551;BME280;21655;46.056;13.616;2023-04-30T12:17:33;100298.41;;;22.84;59.79
35551;BME280;21655;46.056;13.616;2023-04-30T12:19:59;100291.25;;;22.60;59.21
35551;BME280;21655;46.056;13.616;2023-04-30T12:22:25;100291.34;;;22.32;62.08
35551;BME280;21655;46.056;13.616;2023-04-30T12:24:51;100285.13;;;22.46;62.07
35551;BME280;21655;46.056;13.616;2023-04-30T12:27:17;100279.78;;;22.33;61.25
35551;BME280;21655;46.056;13.616;2023-04-30T12:29:45;100282.88;;;22.48;59.75
35551;BME280;21655;46.056;13.616;2023-04-30T12:32:12;100281.25;;;22.52;61.92
35551;BME280;21655;46.056;13.616;2023-04-30T12:34:42;100281.28;;;22.74;61.19
35551;BME280;21655;46.056;13.616;2023-04-30T12:37:08;100270.34;;;22.99;58.27
35551;BME280;21655;46.056;13.616;2023-04-30T12:39:34;100267.97;;;23.33;55.56
35551;BME280;21655;46.056;13.616;2023-04-30T12:42:00;100260.06;;;23.62;54.58
35551;BME280;21655;46.056;13.616;2023-04-30T12:44:28;100259.31;;;23.71;53.60